createdAt,value
2022-08-24T00:02:29.172Z,2266.67
2022-08-24T00:04:59.250Z,2266.67
2022-08-24T00:07:29.453Z,2266.67
2022-08-24T00:10:00.000Z,2266.67
2022-08-24T00:12:31.346Z,2266.67
2022-08-24T00:15:01.783Z,2266.67
2022-08-24T00:17:33.675Z,2266.67
2022-08-24T00:20:03.751Z,2266.67
2022-08-24T00:22:33.539Z,2266.67
2022-08-24T00:25:03.413Z,2266.67
2022-08-24T00:27:33.285Z,2266.67
2022-08-24T00:30:04.126Z,2266.67
2022-08-24T00:32:37.674Z,2266.67
2022-08-24T00:35:09.379Z,2266.67
2022-08-24T00:37:40.056Z,2266.67
2022-08-24T00:40:15.078Z,2266.67
2022-08-24T00:42:45.276Z,2266.67
2022-08-24T00:45:17.258Z,2266.67
2022-08-24T00:47:51.433Z,2266.67
2022-08-24T00:50:24.925Z,2266.67
2022-08-24T00:52:58.709Z,2266.67
2022-08-24T00:55:33.543Z,2266.67
2022-08-24T00:58:08.025Z,2266.67
2022-08-24T01:00:48.521Z,2266.67
2022-08-24T01:03:20.326Z,2266.67
2022-08-24T01:05:50.218Z,2266.67
2022-08-24T01:08:21.718Z,2266.67
2022-08-24T01:10:56.648Z,2266.67
2022-08-24T01:13:27.624Z,2266.67
2022-08-24T01:16:02.762Z,2266.67
2022-08-24T01:18:51.516Z,2266.67
2022-08-24T01:21:28.634Z,2266.67
2022-08-24T01:24:01.852Z,2266.67
2022-08-24T01:26:34.706Z,2266.67
2022-08-24T01:29:09.054Z,2266.67
2022-08-24T01:31:39.623Z,2266.67
2022-08-24T01:34:09.539Z,2266.67
2022-08-24T01:36:42.572Z,2266.67
2022-08-24T01:39:17.244Z,2266.67
2022-08-24T01:41:47.726Z,2266.67
2022-08-24T01:44:17.826Z,2266.67
2022-08-24T01:46:49.935Z,2266.67
2022-08-24T01:49:20.602Z,2266.67
2022-08-24T01:51:50.595Z,2266.67
2022-08-24T01:54:22.164Z,2266.67
2022-08-24T01:56:52.344Z,2266.67
2022-08-24T01:59:22.323Z,2266.67
2022-08-24T02:01:56.119Z,2266.67
2022-08-24T02:04:27.094Z,2266.67
2022-08-24T02:06:59.452Z,2266.67
2022-08-24T02:09:31.304Z,2266.67
2022-08-24T02:12:04.262Z,2266.67
2022-08-24T02:14:37.695Z,2266.67
2022-08-24T02:17:09.522Z,2266.67
2022-08-24T02:19:39.401Z,2266.67
2022-08-24T02:22:09.910Z,2266.67
2022-08-24T02:24:42.899Z,2266.67
2022-08-24T02:27:13.252Z,2266.67
2022-08-24T02:29:43.006Z,2266.67
2022-08-24T02:32:13.246Z,2266.67
2022-08-24T02:34:43.789Z,2266.67
2022-08-24T02:37:13.960Z,2266.67
2022-08-24T02:39:45.151Z,2266.67
2022-08-24T02:42:18.784Z,2266.67
2022-08-24T02:44:49.411Z,2266.67
2022-08-24T02:47:19.975Z,2266.67
2022-08-24T02:49:49.744Z,2266.67
2022-08-24T02:52:19.692Z,2266.67
2022-08-24T02:54:51.991Z,2266.67
2022-08-24T02:57:21.916Z,2266.67
2022-08-24T02:59:51.668Z,2266.67
2022-08-24T03:02:21.571Z,2266.67
2022-08-24T03:04:51.880Z,2266.67
2022-08-24T03:07:22.985Z,2266.67
2022-08-24T03:09:54.247Z,2266.67
2022-08-24T03:12:25.251Z,2266.67
2022-08-24T03:14:55.393Z,2266.67
2022-08-24T03:17:25.244Z,2266.67
2022-08-24T03:19:55.571Z,2266.67
2022-08-24T03:22:25.407Z,2266.67
2022-08-24T03:24:56.513Z,2266.67
2022-08-24T03:27:26.866Z,2266.67
2022-08-24T03:29:57.084Z,2266.67
2022-08-24T03:32:28.160Z,2266.67
2022-08-24T03:34:58.304Z,2266.67
2022-08-24T03:37:28.294Z,2266.67
2022-08-24T03:39:59.599Z,2266.67
2022-08-24T03:42:29.516Z,2266.67
2022-08-24T03:44:59.336Z,2266.67
2022-08-24T03:47:29.634Z,2266.67
2022-08-24T03:49:59.504Z,2266.67
2022-08-24T03:52:33.455Z,2266.67
2022-08-24T03:55:07.407Z,2266.67
2022-08-24T03:57:37.631Z,2266.67
2022-08-24T04:00:10.541Z,2266.67
2022-08-24T04:02:44.912Z,2266.67
2022-08-24T04:05:21.116Z,2266.67
2022-08-24T04:07:50.948Z,2266.67
2022-08-24T04:10:22.057Z,2266.67
2022-08-24T04:12:52.096Z,2266.67
2022-08-24T04:15:25.348Z,2266.67
2022-08-24T04:17:55.296Z,2266.67
2022-08-24T04:20:25.839Z,2266.67
2022-08-24T04:22:56.418Z,2266.67
2022-08-24T04:25:27.575Z,2266.67
2022-08-24T04:27:57.374Z,2266.67
2022-08-24T04:30:27.166Z,2266.67
2022-08-24T04:33:10.266Z,2266.67
2022-08-24T04:35:41.034Z,2266.67
2022-08-24T04:38:11.295Z,2266.67
2022-08-24T04:40:48.993Z,2266.67
2022-08-24T04:43:20.209Z,2266.67
2022-08-24T04:45:51.314Z,2266.67
2022-08-24T04:48:22.959Z,2266.67
2022-08-24T04:50:53.768Z,2266.67
2022-08-24T04:53:23.546Z,2266.67
2022-08-24T04:55:55.994Z,2266.67
2022-08-24T04:58:29.753Z,2266.67
2022-08-24T05:01:00.756Z,2266.67
2022-08-24T05:03:30.640Z,2266.67
2022-08-24T05:06:00.503Z,2266.67
2022-08-24T05:08:30.242Z,2266.67
2022-08-24T05:11:06.216Z,2266.67
2022-08-24T05:13:37.523Z,2266.67
2022-08-24T05:16:08.832Z,2266.67
2022-08-24T05:18:38.735Z,2266.67
2022-08-24T05:21:12.011Z,2266.67
2022-08-24T05:23:43.980Z,2266.67
2022-08-24T05:26:19.671Z,2266.67
2022-08-24T05:28:49.471Z,2266.67
2022-08-24T05:31:21.484Z,2266.67
2022-08-24T05:33:52.189Z,2266.67
2022-08-24T05:36:24.358Z,2266.67
2022-08-24T05:38:57.099Z,2266.67
2022-08-24T05:41:30.215Z,2266.67
2022-08-24T05:44:10.301Z,2266.67
2022-08-24T05:46:40.206Z,2266.67
2022-08-24T05:49:10.545Z,2266.67
2022-08-24T05:51:42.285Z,2266.67
2022-08-24T05:54:14.698Z,2266.67
2022-08-24T05:57:04.817Z,2266.67
2022-08-24T05:59:41.146Z,2266.67
2022-08-24T06:02:18.447Z,2266.67
2022-08-24T06:04:48.566Z,2266.67
2022-08-24T06:07:18.551Z,2266.67
2022-08-24T06:09:55.270Z,2266.67
2022-08-24T06:12:26.388Z,2266.67
2022-08-24T06:14:56.204Z,2266.67
2022-08-24T06:17:27.022Z,2266.67
2022-08-24T06:19:56.927Z,2266.67
2022-08-24T06:22:26.767Z,2266.67
2022-08-24T06:25:14.234Z,2266.67
2022-08-24T06:27:45.502Z,2266.67
2022-08-24T06:30:16.638Z,2266.67
2022-08-24T06:32:52.206Z,2266.67
2022-08-24T06:35:32.378Z,2266.67
2022-08-24T06:38:03.093Z,2266.67
2022-08-24T06:40:33.430Z,2266.67
2022-08-24T06:43:05.356Z,2266.67
2022-08-24T06:45:43.801Z,2266.67
2022-08-24T06:48:15.638Z,2266.67
2022-08-24T06:50:45.469Z,2266.67
2022-08-24T06:53:15.607Z,2266.67
2022-08-24T06:55:47.488Z,2266.67
2022-08-24T06:58:19.172Z,2266.67
2022-08-24T07:00:49.757Z,2266.67
2022-08-24T07:03:21.059Z,2266.67
2022-08-24T07:05:59.492Z,2266.67
2022-08-24T07:08:43.036Z,2266.67
2022-08-24T07:11:17.451Z,2266.67
2022-08-24T07:13:49.780Z,2266.67
2022-08-24T07:16:21.018Z,2266.67
2022-08-24T07:18:55.026Z,2266.67
2022-08-24T07:21:25.199Z,2266.67
2022-08-24T07:23:57.327Z,2266.67
2022-08-24T07:26:30.215Z,2266.67
2022-08-24T07:29:06.223Z,2266.67
2022-08-24T07:31:44.091Z,2266.67
2022-08-24T07:34:21.367Z,2266.67
2022-08-24T07:36:53.687Z,2266.67
2022-08-24T07:39:24.296Z,2266.67
2022-08-24T07:42:12.209Z,2266.67
2022-08-24T07:44:45.155Z,2266.67
2022-08-24T07:47:37.108Z,2266.67
2022-08-24T07:50:08.091Z,2266.67
2022-08-24T07:52:37.972Z,2266.67
2022-08-24T07:55:08.410Z,2266.67
2022-08-24T07:57:39.502Z,2266.67
2022-08-24T08:00:14.639Z,2266.67
2022-08-24T08:02:46.634Z,2266.67
2022-08-24T08:05:22.623Z,2266.67
2022-08-24T08:07:54.977Z,2266.67
2022-08-24T08:10:25.690Z,2266.67
2022-08-24T08:12:56.547Z,2266.67
2022-08-24T08:15:27.930Z,2266.67
2022-08-24T08:18:04.990Z,2266.67
2022-08-24T08:20:40.158Z,2266.67
2022-08-24T08:23:28.642Z,2266.67
2022-08-24T08:26:08.471Z,2266.67
2022-08-24T08:28:57.246Z,2266.67
2022-08-24T08:31:28.603Z,2266.67
2022-08-24T08:33:58.574Z,2266.67
2022-08-24T08:36:29.614Z,2266.67
2022-08-24T08:39:00.166Z,2266.67
2022-08-24T08:42:20.602Z,2266.67
2022-08-24T08:45:14.284Z,2266.67
2022-08-24T08:48:10.674Z,2266.67
2022-08-24T08:50:57.331Z,2266.67
2022-08-24T08:53:56.710Z,2266.67
2022-08-24T08:56:35.489Z,2266.67
2022-08-24T08:59:14.729Z,2266.67
2022-08-24T09:02:04.117Z,2266.67
2022-08-24T09:05:12.772Z,2266.67
2022-08-24T09:07:51.547Z,2266.67
2022-08-24T09:10:46.017Z,2266.67
2022-08-24T09:13:36.393Z,2266.67
2022-08-24T09:16:27.471Z,2266.67
2022-08-24T09:19:16.284Z,2266.67
2022-08-24T09:22:04.256Z,2266.67
2022-08-24T09:24:51.459Z,2266.67
2022-08-24T09:27:53.701Z,2266.67
2022-08-24T09:30:25.780Z,2266.67
2022-08-24T09:33:00.882Z,2266.67
2022-08-24T09:35:45.025Z,2266.67
2022-08-24T09:38:23.683Z,2266.67
2022-08-24T09:41:16.868Z,2266.67
2022-08-24T09:44:17.092Z,2266.67
2022-08-24T09:47:13.583Z,2266.67
2022-08-24T09:50:07.645Z,2266.67
2022-08-24T09:53:06.160Z,2266.67
2022-08-24T09:56:02.465Z,2266.67
2022-08-24T09:58:54.353Z,2266.67
2022-08-24T10:01:33.035Z,2266.67
2022-08-24T10:04:14.277Z,2266.67
2022-08-24T10:06:55.494Z,2266.67
2022-08-24T10:09:54.899Z,2266.67
2022-08-24T10:12:43.265Z,2266.67
2022-08-24T10:15:20.688Z,2266.67
2022-08-24T10:18:18.567Z,2266.67
2022-08-24T10:21:13.395Z,2266.67
2022-08-24T10:24:06.591Z,2266.67
2022-08-24T10:27:01.638Z,2266.67
2022-08-24T10:29:53.290Z,2266.67
2022-08-24T10:32:51.950Z,2266.67
2022-08-24T10:35:26.878Z,2266.67
2022-08-24T10:38:37.968Z,2266.67
2022-08-24T10:41:55.454Z,2266.67
2022-08-24T10:44:49.461Z,2266.67
2022-08-24T10:47:23.326Z,2266.67
2022-08-24T10:50:31.018Z,2266.67
2022-08-24T10:53:21.332Z,2266.67
2022-08-24T10:56:01.118Z,2266.67
2022-08-24T10:58:50.939Z,2266.67
2022-08-24T11:01:29.796Z,2266.67
2022-08-24T11:04:07.070Z,2266.67
2022-08-24T11:06:39.255Z,2266.67
2022-08-24T11:09:14.816Z,2266.67
2022-08-24T11:11:49.720Z,2266.67
2022-08-24T11:14:29.526Z,2266.67
2022-08-24T11:17:16.255Z,2266.67
2022-08-24T11:19:46.446Z,2266.67
2022-08-24T11:22:33.635Z,2266.67
2022-08-24T11:25:08.683Z,2266.67
2022-08-24T11:27:42.026Z,2266.67
2022-08-24T11:30:16.064Z,2266.67
2022-08-24T11:32:52.575Z,2266.67
2022-08-24T11:35:26.030Z,2266.67
2022-08-24T11:37:57.894Z,2266.67
2022-08-24T11:40:30.513Z,2266.67
2022-08-24T11:43:19.574Z,2266.67
2022-08-24T11:46:01.058Z,2266.67
2022-08-24T11:48:45.205Z,2266.67
2022-08-24T11:51:26.927Z,2266.67
2022-08-24T11:54:06.155Z,2266.67
2022-08-24T11:56:42.393Z,2266.67
2022-08-24T11:59:18.597Z,2266.67
2022-08-24T12:01:52.891Z,2266.67
2022-08-24T12:04:47.481Z,2266.67
2022-08-24T12:07:27.735Z,2266.67
2022-08-24T12:10:15.315Z,2266.67
2022-08-24T12:12:52.208Z,2266.67
2022-08-24T12:15:41.315Z,2266.67
2022-08-24T12:18:21.409Z,2266.67
2022-08-24T12:20:54.011Z,2266.67
2022-08-24T12:23:31.220Z,2266.67
2022-08-24T12:26:05.873Z,2266.67
2022-08-24T12:28:39.376Z,2266.67
2022-08-24T12:31:16.499Z,2266.67
2022-08-24T12:33:51.219Z,2266.67
2022-08-24T12:36:29.613Z,2266.67
2022-08-24T12:39:10.053Z,2266.67
2022-08-24T12:41:55.835Z,2266.67
2022-08-24T12:44:33.157Z,2266.67
2022-08-24T12:47:03.455Z,2266.67
2022-08-24T12:49:39.686Z,2266.67
2022-08-24T12:52:22.113Z,2266.67
2022-08-24T12:55:17.588Z,2266.67
2022-08-24T12:57:58.749Z,2266.67
2022-08-24T13:00:36.329Z,2266.67
2022-08-24T13:03:09.528Z,2266.67
2022-08-24T13:05:43.047Z,2266.67
2022-08-24T13:08:19.215Z,2266.67
2022-08-24T13:11:00.838Z,2266.67
2022-08-24T13:13:49.326Z,2266.67
2022-08-24T13:16:51.904Z,2266.67
2022-08-24T13:19:37.496Z,2266.67
2022-08-24T13:22:38.239Z,2266.67
2022-08-24T13:25:53.330Z,2266.67
2022-08-24T13:28:39.657Z,2266.67
2022-08-24T13:31:22.608Z,2266.67
2022-08-24T13:33:55.282Z,2266.67
2022-08-24T13:36:48.010Z,2266.67
2022-08-24T13:39:56.519Z,2266.67
2022-08-24T13:42:47.108Z,2266.67
2022-08-24T13:45:24.742Z,2266.67
2022-08-24T13:48:11.032Z,2266.67
2022-08-24T13:50:49.768Z,2266.67
2022-08-24T13:53:47.760Z,2266.67
2022-08-24T13:56:38.841Z,2266.67
2022-08-24T13:59:22.454Z,2266.67
2022-08-24T14:02:05.136Z,2266.67
2022-08-24T14:04:46.012Z,2266.67
2022-08-24T14:07:22.456Z,2266.67
2022-08-24T14:10:07.980Z,2266.67
2022-08-24T14:12:49.276Z,2266.67
2022-08-24T14:15:27.335Z,2266.67
2022-08-24T14:18:09.288Z,2266.67
2022-08-24T14:20:58.316Z,2266.67
2022-08-24T14:23:41.884Z,2266.67
2022-08-24T14:26:52.982Z,2266.67
2022-08-24T14:29:48.059Z,2266.67
2022-08-24T14:32:31.284Z,2266.67
2022-08-24T14:35:31.424Z,2266.67
2022-08-24T14:38:12.390Z,2266.67
2022-08-24T14:40:57.753Z,2266.67
2022-08-24T14:43:35.157Z,2266.67
2022-08-24T14:46:15.298Z,2266.67
2022-08-24T14:48:58.742Z,2266.67
2022-08-24T14:51:47.791Z,2266.67
2022-08-24T14:54:31.987Z,2266.67
2022-08-24T14:57:36.825Z,2266.67
2022-08-24T15:00:13.258Z,2266.67
2022-08-24T15:03:03.621Z,2266.67
2022-08-24T15:05:42.598Z,2266.67
2022-08-24T15:08:16.316Z,2266.67
2022-08-24T15:10:52.740Z,2266.67
2022-08-24T15:13:36.905Z,2266.67
2022-08-24T15:16:13.018Z,2266.67
2022-08-24T15:18:48.756Z,2266.67
2022-08-24T15:21:29.747Z,2266.67
2022-08-24T15:24:12.193Z,2266.67
2022-08-24T15:26:59.005Z,2266.67
2022-08-24T15:29:31.395Z,2266.67
2022-08-24T15:32:17.695Z,2266.67
2022-08-24T15:35:01.364Z,2266.67
2022-08-24T15:37:34.378Z,2266.67
2022-08-24T15:40:04.079Z,2266.67
2022-08-24T15:42:37.777Z,2266.67
2022-08-24T15:45:07.322Z,2266.67
2022-08-24T15:47:39.294Z,2266.67
2022-08-24T15:50:20.374Z,2266.67
2022-08-24T15:52:55.082Z,2266.67
2022-08-24T15:55:37.106Z,2266.67
2022-08-24T15:58:25.274Z,2266.67
2022-08-24T16:01:10.741Z,2266.67
2022-08-24T16:03:49.088Z,2266.67
2022-08-24T16:06:25.906Z,2266.67
2022-08-24T16:09:04.387Z,2266.67
2022-08-24T16:11:38.284Z,2266.67
2022-08-24T16:14:11.852Z,2266.67
2022-08-24T16:16:42.793Z,2266.67
2022-08-24T16:19:24.100Z,2266.67
2022-08-24T16:21:56.408Z,2266.67
2022-08-24T16:24:32.658Z,2266.67
2022-08-24T16:27:06.414Z,2266.67
2022-08-24T16:29:52.407Z,2266.67
2022-08-24T16:32:32.859Z,2266.67
2022-08-24T16:35:18.525Z,2266.67
2022-08-24T16:37:46.261Z,2266.67
2022-08-24T16:40:15.858Z,2266.67
2022-08-24T16:42:43.876Z,2266.67
2022-08-24T16:45:14.903Z,2266.67
2022-08-24T16:47:42.707Z,2266.67
2022-08-24T16:50:10.868Z,2266.67
2022-08-24T16:52:38.638Z,2266.67
2022-08-24T16:55:07.485Z,2266.67
2022-08-24T16:57:37.573Z,2266.67
2022-08-24T17:00:08.633Z,2266.67
2022-08-24T17:02:37.582Z,2266.67
2022-08-24T17:05:06.672Z,2266.67
2022-08-24T17:07:34.676Z,2266.67
2022-08-24T17:10:05.745Z,2266.67
2022-08-24T17:12:35.990Z,2266.67
2022-08-24T17:15:05.684Z,2266.67
2022-08-24T17:17:34.311Z,2266.67
2022-08-24T17:20:03.239Z,2266.67
2022-08-24T17:22:31.224Z,2266.67
2022-08-24T17:24:59.540Z,2266.67
2022-08-24T17:27:32.275Z,2266.67
2022-08-24T17:30:00.714Z,2266.67
2022-08-24T17:32:29.914Z,2266.67
2022-08-24T17:34:58.057Z,2266.67
2022-08-24T17:37:26.137Z,2266.67
2022-08-24T17:39:57.159Z,2266.67
2022-08-24T17:42:49.750Z,2266.67
2022-08-24T17:45:13.946Z,2266.67
2022-08-24T17:47:44.106Z,2266.67
2022-08-24T17:50:13.407Z,2266.67
2022-08-24T17:52:41.740Z,2266.67
2022-08-24T17:55:11.429Z,2266.67
2022-08-24T17:57:39.750Z,2266.67
2022-08-24T18:00:12.385Z,2266.67
2022-08-24T18:02:41.184Z,2266.67
2022-08-24T18:05:13.260Z,2266.67
2022-08-24T18:07:55.108Z,2266.67
2022-08-24T18:10:26.023Z,2266.67
2022-08-24T18:12:54.095Z,2266.67
2022-08-24T18:15:22.879Z,2266.67
2022-08-24T18:18:08.749Z,2266.67
2022-08-24T18:20:41.313Z,2266.67
2022-08-24T18:23:11.671Z,2266.67
2022-08-24T18:25:45.384Z,2266.67
2022-08-24T18:28:14.891Z,2266.67
2022-08-24T18:30:42.942Z,2266.67
2022-08-24T18:33:11.961Z,2266.67
2022-08-24T18:35:41.101Z,2266.67
2022-08-24T18:38:09.526Z,2266.67
2022-08-24T18:40:38.679Z,2266.67
2022-08-24T18:43:08.116Z,2266.67
2022-08-24T18:45:36.600Z,2266.67
2022-08-24T18:48:05.856Z,2266.67
2022-08-24T18:50:37.688Z,2266.67
2022-08-24T18:53:10.032Z,2266.67
2022-08-24T18:55:39.026Z,2266.67
2022-08-24T18:58:07.557Z,2266.67
2022-08-24T19:00:35.683Z,2266.67
2022-08-24T19:03:07.939Z,2266.67
2022-08-24T19:05:36.595Z,2266.67
2022-08-24T19:08:06.526Z,2266.67
2022-08-24T19:10:38.300Z,2266.67
2022-08-24T19:13:10.471Z,2266.67
2022-08-24T19:15:39.844Z,2266.67
2022-08-24T19:18:09.808Z,2266.67
2022-08-24T19:20:43.403Z,2266.67
2022-08-24T19:23:20.454Z,2266.67
2022-08-24T19:25:49.914Z,2266.67
2022-08-24T19:28:18.357Z,2266.67
2022-08-24T19:30:46.956Z,2266.67
2022-08-24T19:33:18.189Z,2266.67
2022-08-24T19:35:46.061Z,2266.67
2022-08-24T19:38:13.848Z,2266.67
2022-08-24T19:40:47.677Z,2266.67
2022-08-24T19:43:17.585Z,2266.67
2022-08-24T19:46:06.122Z,2266.67
2022-08-24T19:48:35.913Z,2266.67
2022-08-24T19:51:05.846Z,2266.67
2022-08-24T19:53:37.016Z,2266.67
2022-08-24T19:56:06.578Z,2266.67
2022-08-24T19:58:44.097Z,2266.67
2022-08-24T20:01:15.469Z,2266.67
2022-08-24T20:03:43.284Z,2266.67
2022-08-24T20:06:11.609Z,2266.67
2022-08-24T20:08:39.892Z,2266.67
2022-08-24T20:11:08.287Z,2266.67
2022-08-24T20:13:36.515Z,2266.67
2022-08-24T20:16:10.609Z,2266.67
2022-08-24T20:18:39.392Z,2266.67
2022-08-24T20:21:08.028Z,2266.67
2022-08-24T20:23:36.543Z,2266.67
2022-08-24T20:26:07.017Z,2266.67
2022-08-24T20:28:39.632Z,2266.67
2022-08-24T20:31:09.739Z,2266.67
2022-08-24T20:33:37.503Z,2266.67
2022-08-24T20:36:06.507Z,2266.67
2022-08-24T20:38:35.342Z,2266.67
2022-08-24T20:41:03.360Z,2266.67
2022-08-24T20:43:31.381Z,2266.67
2022-08-24T20:45:59.199Z,2266.67
2022-08-24T20:48:33.115Z,2266.67
2022-08-24T20:51:01.692Z,2266.67
2022-08-24T20:53:29.624Z,2266.67
2022-08-24T20:56:00.052Z,2266.67
2022-08-24T20:58:27.892Z,2266.67
2022-08-24T21:00:55.675Z,2266.67
2022-08-24T21:03:23.506Z,2266.67
2022-08-24T21:05:52.716Z,2266.67
2022-08-24T21:08:21.166Z,2266.67
2022-08-24T21:10:49.230Z,2266.67
2022-08-24T21:13:16.970Z,2266.67
2022-08-24T21:15:45.350Z,2266.67
2022-08-24T21:18:13.150Z,2266.67
2022-08-24T21:20:44.486Z,2266.67
2022-08-24T21:23:29.013Z,2266.67
2022-08-24T21:25:57.056Z,2266.67
2022-08-24T21:28:24.835Z,2266.67
2022-08-24T21:30:52.599Z,2266.67
2022-08-24T21:33:38.148Z,2266.67
2022-08-24T21:36:06.171Z,2266.67
2022-08-24T21:38:37.086Z,2266.67
2022-08-24T21:41:07.098Z,2266.67
2022-08-24T21:43:34.894Z,2266.67
2022-08-24T21:46:02.622Z,2266.67
2022-08-24T21:48:30.364Z,1785.90
2022-08-24T21:50:58.526Z,1698.37
2022-08-24T21:53:28.500Z,2266.67
2022-08-24T21:55:58.654Z,1837.27
2022-08-24T21:58:26.466Z,2266.67
2022-08-24T22:00:54.383Z,2266.67
2022-08-24T22:03:27.726Z,2266.67
2022-08-24T22:06:02.466Z,2266.67
2022-08-24T22:08:30.196Z,2266.67
2022-08-24T22:10:59.223Z,2266.67
2022-08-24T22:13:27.022Z,1898.93
2022-08-24T22:15:54.837Z,1853.60
2022-08-24T22:18:22.668Z,704.13
2022-08-24T22:20:50.418Z,1898.33
2022-08-24T22:23:18.340Z,886.00
2022-08-24T22:25:46.831Z,1024.80
2022-08-24T22:28:15.905Z,1279.63
2022-08-24T22:30:47.850Z,2019.47
2022-08-24T22:33:17.238Z,1937.97
2022-08-24T22:35:45.657Z,2266.67
2022-08-24T22:38:13.916Z,1680.40
2022-08-24T22:40:43.122Z,2266.67
2022-08-24T22:43:11.821Z,1842.67
2022-08-24T22:45:40.877Z,1909.17
2022-08-24T22:48:08.630Z,1902.97
2022-08-24T22:50:36.588Z,994.77
2022-08-24T22:53:04.736Z,1189.30
2022-08-24T22:55:32.899Z,1418.60
2022-08-24T22:58:00.603Z,2140.23
2022-08-24T23:00:28.362Z,1976.33
2022-08-24T23:02:57.454Z,2051.17
2022-08-24T23:05:25.357Z,2076.23
2022-08-24T23:07:53.332Z,1359.80
2022-08-24T23:10:21.118Z,2080.20
2022-08-24T23:12:49.109Z,1934.50
2022-08-24T23:15:16.959Z,1893.40
2022-08-24T23:17:45.251Z,1934.60
2022-08-24T23:20:13.375Z,1134.80
2022-08-24T23:22:41.923Z,1989.07
2022-08-24T23:25:12.625Z,1969.17
2022-08-24T23:27:40.771Z,1883.60
2022-08-24T23:30:12.099Z,927.60
2022-08-24T23:32:40.175Z,1419.17
2022-08-24T23:35:09.115Z,1433.17
2022-08-24T23:37:38.202Z,1181.33
2022-08-24T23:40:07.308Z,1891.40
2022-08-24T23:42:35.150Z,1738.07
2022-08-24T23:45:02.900Z,1829.83
2022-08-24T23:47:30.679Z,1732.53
2022-08-24T23:50:03.782Z,1691.50
2022-08-24T23:52:37.699Z,2266.67
2022-08-24T23:55:20.160Z,1952.53
2022-08-24T23:57:49.550Z,1821.00
